createdAt,value
2019-01-12T00:09:46.309Z,8.07
2019-01-12T00:19:50.117Z,6.73
2019-01-12T00:29:53.687Z,5.90
2019-01-12T00:39:57.237Z,4.53
2019-01-12T00:50:14.234Z,4.53
2019-01-12T01:00:19.526Z,5.67
2019-01-12T01:10:23.258Z,7.07
2019-01-12T01:20:26.830Z,5.63
2019-01-12T01:30:30.406Z,4.20
2019-01-12T01:40:33.966Z,6.30
2019-01-12T01:50:37.527Z,4.17
2019-01-12T02:00:41.113Z,2.83
2019-01-12T02:10:44.681Z,2.67
2019-01-12T02:20:48.257Z,3.17
2019-01-12T02:30:51.822Z,1.97
2019-01-12T02:40:55.402Z,3.70
2019-01-12T02:50:58.979Z,0.97
2019-01-12T03:01:02.574Z,3.63
2019-01-12T03:11:06.150Z,3.37
2019-01-12T03:21:09.739Z,4.23
2019-01-12T03:31:13.316Z,5.33
2019-01-12T03:41:16.892Z,2.87
2019-01-12T03:51:20.487Z,3.33
2019-01-12T04:01:24.065Z,0.73
2019-01-12T04:11:27.665Z,1.33
2019-01-12T04:21:31.249Z,0.77
2019-01-12T04:31:34.818Z,1.60
2019-01-12T04:41:38.403Z,0.53
2019-01-12T04:51:41.976Z,0.20
2019-01-12T05:01:45.563Z,0.73
2019-01-12T05:11:49.138Z,0.50
2019-01-12T05:21:52.730Z,1.73
2019-01-12T05:31:56.308Z,1.17
2019-01-12T05:41:59.896Z,2.47
2019-01-12T05:52:03.471Z,0.57
2019-01-12T06:02:07.064Z,1.13
2019-01-12T06:12:10.638Z,0.60
2019-01-12T06:22:14.222Z,1.60
2019-01-12T06:32:17.794Z,0.97
2019-01-12T06:42:21.367Z,0.97
2019-01-12T06:52:24.938Z,0.77
2019-01-12T07:02:28.523Z,1.43
2019-01-12T07:12:32.093Z,1.23
2019-01-12T07:22:35.666Z,0.40
2019-01-12T07:32:39.247Z,0.50
2019-01-12T07:42:42.820Z,1.13
2019-01-12T07:52:46.402Z,2.93
2019-01-12T08:02:49.990Z,2.17
2019-01-12T08:12:53.570Z,2.23
2019-01-12T08:22:57.158Z,1.23
2019-01-12T08:33:00.737Z,2.77
2019-01-12T08:43:04.303Z,2.60
2019-01-12T08:53:07.883Z,2.20
2019-01-12T09:03:24.041Z,3.73
2019-01-12T09:13:28.659Z,3.83
2019-01-12T09:23:32.246Z,5.10
2019-01-12T09:33:51.320Z,2.43
2019-01-12T09:43:54.898Z,2.63
2019-01-12T09:53:58.468Z,4.30
2019-01-12T10:04:08.034Z,3.23
2019-01-12T10:14:11.607Z,2.77
2019-01-12T10:24:15.187Z,4.27
2019-01-12T10:34:18.757Z,4.30
2019-01-12T10:44:22.390Z,4.07
2019-01-12T10:54:25.962Z,3.07
2019-01-12T11:04:29.606Z,4.13
2019-01-12T11:14:36.579Z,2.77
2019-01-12T11:24:42.209Z,5.33
2019-01-12T11:34:54.245Z,5.33
2019-01-12T11:44:57.914Z,6.50
2019-01-12T11:55:01.490Z,6.20
2019-01-12T12:05:05.501Z,6.83
2019-01-12T12:15:10.251Z,7.20
2019-01-12T12:25:14.214Z,7.60
2019-01-12T12:35:17.794Z,7.60
2019-01-12T12:45:29.916Z,5.70
2019-01-12T12:55:33.495Z,5.80
2019-01-12T13:05:37.082Z,5.03
2019-01-12T13:15:40.669Z,4.70
2019-01-12T13:25:44.238Z,3.83
2019-01-12T13:35:48.071Z,2.87
2019-01-12T13:45:51.726Z,1.93
2019-01-12T13:55:55.387Z,1.43
2019-01-12T14:05:59.079Z,0.93
2019-01-12T14:16:02.670Z,1.37
2019-01-12T14:26:06.390Z,2.53
2019-01-12T14:36:10.258Z,2.40
2019-01-12T14:46:13.826Z,3.77
2019-01-12T14:56:17.557Z,3.67
2019-01-12T15:06:21.347Z,4.90
2019-01-12T15:16:25.166Z,2.13
2019-01-12T15:26:29.767Z,3.30
2019-01-12T15:36:33.411Z,3.53
2019-01-12T15:46:37.307Z,7.03
2019-01-12T15:56:41.167Z,3.67
2019-01-12T16:06:44.852Z,5.07
2019-01-12T16:16:48.475Z,2.80
2019-01-12T16:26:52.066Z,8.10
2019-01-12T16:36:55.709Z,4.47
2019-01-12T16:46:59.646Z,5.17
2019-01-12T16:57:03.314Z,6.90
2019-01-12T17:07:06.986Z,9.47
2019-01-12T17:17:11.722Z,2.27
2019-01-12T17:27:15.406Z,7.03
2019-01-12T17:37:19.251Z,3.70
2019-01-12T17:47:23.259Z,8.03
2019-01-12T17:57:26.975Z,6.20
2019-01-12T18:07:30.788Z,4.27
2019-01-12T18:17:34.438Z,6.20
2019-01-12T18:27:38.103Z,4.37
2019-01-12T18:37:42.770Z,3.30
2019-01-12T18:47:46.533Z,8.17
2019-01-12T18:57:50.375Z,9.00
2019-01-12T19:07:54.265Z,8.53
2019-01-12T19:17:58.042Z,5.10
2019-01-12T19:28:01.882Z,6.00
2019-01-12T19:38:05.682Z,4.00
2019-01-12T19:48:09.435Z,3.77
2019-01-12T19:58:13.876Z,6.63
2019-01-12T20:08:17.688Z,4.67
2019-01-12T20:18:21.560Z,3.93
2019-01-12T20:28:25.296Z,3.43
2019-01-12T20:39:14.089Z,5.60
2019-01-12T20:49:55.517Z,3.70
2019-01-12T21:00:40.579Z,4.43
2019-01-12T21:10:54.420Z,2.00
2019-01-12T21:20:58.111Z,1.90
2019-01-12T21:31:01.787Z,0.53
2019-01-12T21:41:05.382Z,2.93
2019-01-12T21:51:09.001Z,0.93
2019-01-12T22:01:12.688Z,0.20
2019-01-12T22:11:16.367Z,2.73
2019-01-12T22:21:22.019Z,0.60
2019-01-12T22:31:25.621Z,0.77
2019-01-12T22:41:29.221Z,1.37
2019-01-12T22:51:32.847Z,2.07
2019-01-12T23:01:42.513Z,3.10
2019-01-12T23:11:46.103Z,3.00
2019-01-12T23:21:49.706Z,5.23
2019-01-12T23:31:53.323Z,7.17
2019-01-12T23:41:56.928Z,5.03
2019-01-12T23:52:00.521Z,7.00
